METAR Data
IDs: Format: Raw Decoded Include TAF

Data at: 1724 UTC 19 Sep 2018

KMDW 191653Z 04007KT 10SM FEW015 FEW200 BKN250 26/16 A3003 RMK AO2 SLP161 T02560156
KMDW 191553Z 09008KT 10SM FEW015 FEW200 SCT250 24/16 A3003 RMK AO2 SLP161 T02390156
KMDW 191453Z 09005KT 10SM FEW013 SCT250 22/16 A3004 RMK AO2 SLP165 T02220156 53003
KMDW 191353Z 06007KT 10SM SCT013 BKN250 21/17 A3004 RMK AO2 SLP164 T02060167
KMDW 191325Z 08008KT 10SM BKN013 BKN250 21/17 A3004 RMK AO2 T02060167
KMDW 191253Z 09010KT 10SM SCT013 SCT250 21/17 A3003 RMK AO2 SLP162 T02060167
KMDW 191153Z 05010KT 10SM OVC015 21/17 A3003 RMK AO2 SLP162 T02060167 10206 20194 53010
KMDW 191053Z 06008KT 10SM OVC015 21/17 A3001 RMK AO2 SLP156 T02060167
KMDW 191038Z 07010KT 10SM OVC015 21/17 A3001 RMK AO2 T02060167
KMDW 190953Z 05009KT 10SM OVC014 21/17 A3001 RMK AO2 SLP155 T02060167
KMDW 190853Z 07007KT 10SM OVC014 21/17 A3000 RMK AO2 SLP151 T02060167 50003
KMDW 190753Z 05007KT 10SM BKN014 20/17 A3000 RMK AO2 SLP152 T02000167
KMDW 190653Z 04008KT 10SM BKN014 20/17 A3000 RMK AO2 SLP152 T02000167
KMDW 190553Z 03008KT 10SM FEW014 FEW130 21/17 A2999 RMK AO2 SLP148 T02060167 10222 20206 402780206 50004
KMDW 190453Z COR 04005KT 10SM FEW015 SCT130 SCT250 21/17 A2999 RMK AO2 SLP147 T02110167
KMDW 190353Z 05005KT 10SM FEW015 BKN120 BKN250 21/17 A2999 RMK AO2 SLP147 T02110172
KMDW 190253Z 05008KT 10SM FEW015 SCT110 BKN200 21/17 A2998 RMK AO2 SLP144 T02110167 53015
KMDW 190153Z 09008KT 10SM FEW015 SCT140 BKN200 21/17 A2996 RMK AO2 SLP139 T02110167
KMDW 190053Z 06013KT 10SM SCT010 SCT150 BKN180 BKN250 22/17 A2995 RMK AO2 SLP133 T02170172
KMDW 182353Z 09006KT 10SM FEW015 SCT150 SCT180 BKN250 22/17 A2994 RMK AO2 SLP129 60000 T02220172 10261 20222 55009
KMDW 182253Z 14008KT 9SM SCT150 BKN180 BKN250 23/17 A2992 RMK AO2 RAB18E26 SLP123 P0000 T02280172
KMDW 182153Z 16008KT 10SM FEW020 SCT080 BKN110 BKN140 BKN250 24/16 A2991 RMK AO2 PRESFR SLP120 T02390161
KMDW 182053Z 35004KT 10SM FEW020 SCT075 BKN140 BKN250 23/17 A2996 RMK AO2 SLP137 T02330167 58004
KMDW 182044Z 36007KT 10SM FEW020 SCT075 BKN140 BKN250 23/17 A2997 RMK AO2 T02330167
KMDW 181953Z 01009G17KT 10SM BKN022 BKN075 BKN090 OVC250 23/17 A2999 RMK AO2 SLP148 T02330172
KMDW 181938Z 36009KT 10SM BKN022 BKN075 BKN090 OVC250 23/17 A3000 RMK AO2 T02330172
KMDW 181853Z 36015G21KT 10SM FEW027 SCT075 BKN095 BKN250 24/18 A3000 RMK AO2 SLP149 T02440178
KMDW 181753Z 35009KT 10SM FEW070 BKN090 BKN180 BKN250 26/17 A2997 RMK AO2 SLP139 T02610172 10278 20206 55002
KMDW 181653Z 04006KT 10SM FEW065 BKN180 BKN250 27/18 A2996 RMK AO2 SLP134 T02720183
KMDW 181553Z 01004KT 10SM FEW015 FEW070 BKN160 BKN250 26/17 A2996 RMK AO2 SLP136 T02560172
KMDW 181453Z 32006KT 10SM FEW013 FEW070 SCT110 BKN250 23/18 A2998 RMK AO2 SLP142 T02280178 52003
KMDW 181423Z 33004KT 10SM SCT013 SCT110 BKN250 22/17 A2999 RMK AO2 T02170172
KMDW 181353Z 01009KT 10SM BKN013 OVC110 21/17 A2998 RMK AO2 SLP144 T02110172
KMDW 181311Z 03012KT 10SM BKN011 BKN110 OVC250 22/18 A2998 RMK AO2 BKN011 V SCT T02170183
KMDW 181253Z 03009G21KT 10SM SCT011 BKN110 BKN250 22/19 A2997 RMK AO2 SLP138 T02170189
KMDW 181247Z 02008G21KT 10SM BKN011 BKN110 BKN250 22/19 A2997 RMK AO2
KMDW 181153Z 04006KT 10SM FEW007 FEW110 SCT250 21/19 A2995 RMK AO2 SLP132 T02110189 10244 20211 51010
KMDW 181053Z 03007KT 10SM FEW007 22/19 A2994 RMK AO2 SLP129 T02170194
KMDW 180953Z 03004KT 10SM FEW007 23/18 A2993 RMK AO2 SLP124 T02280183
KMDW 180853Z 00000KT 10SM CLR 23/18 A2992 RMK AO2 SLP120 T02330178 56000
KMDW 180753Z 29003KT 10SM FEW065 23/18 A2992 RMK AO2 SLP120 T02280178
KMDW 180653Z 21004KT 10SM FEW004 24/18 A2992 RMK AO2 SLP119 T02390178
KMDW 180553Z 00000KT 10SM CLR 24/18 A2992 RMK AO2 SLP120 T02440178 10289 20239 403330206 50002